Airfield :
LOGIN :

Register | Disclaimer

   EN    FR    IT 

 










Legend :    VFR   Marginal VFR   IFR   Intensive IFR   Very Intensive IFR
Visi :
Ceiling :
>= 8 km
>= 3000ft
5 to 8 km
1000 to 3000 ft
1500m to 5 km
500 to 1000 ft
800 to 1500m
200 to 500 ft
< 800m
< 200 ft
Symbols :   Thunderstorms  Fog  Heavy snow  Heavy precipitations  Wind > 20 kt
SIGMETs :     Misc.  Thunderstorms  Icing  Turbulence  Mountain Waves  Volcanic Ashes







- Airport Elevation : 194 ft


EBCV - Chièvres

CURRENT METAR :
  • 180355Z AUTO 21004KT 8000 NCD M01/M01 Q1018 BLU

EXPIRED METARs :
  • 180325Z AUTO 21004KT 8000 NCD M00/M01 Q1018 BLU
  • 180255Z AUTO 22005KT 9999 FEW009/// SCT056/// 00/00 Q1018 BLU
  • 180233Z AUTO 24004KT 4000 -RASN SCT013/// BKN027/// 01/00 Q1018 GRN
  • 180203Z AUTO 22006KT 9999 BKN024/// 00/00 Q1018 WHT
  • 180125Z AUTO 22005KT 9000 FEW015/// OVC057/// 00/00 Q1018 BLU

TAF TAF EBCV
Valid from the 17 at 19:00 until the 18 at 07:00 UTC


171553Z 1719/1807 27012KT 9999 BKN027
TEMPO 1719/1800 4000 -SHRA -SHRASN BKN012 BKN020
BECMG 1800/1802 9999 NSW FEW035 BY EBWM
No reported NOTAMs for that airfield.



MET'MAP, your aeronautical weather chart ! - Copyright ORBIFLY December 2007 - Disclaimer

ORBIFLY MET'MAP TEAM :

Programming & Development : Alexandra Zaïnal
Concept & Development : Baudouin d'Aumeries
Co-Development & Prog : Marc-Olivier Méhu
Technical & hardware support : Manuel Goepfert

Contact : metmap@orbifly.com




SOURCES & CREDITS :

   NOAA